sensor_id;sensor_type;location;lat;lon;timestamp;temperature;humidity
39665;DHT22;26679;50.872;4.332;2024-01-06T00:00:44;21.10;74.90
39665;DHT22;26679;50.872;4.332;2024-01-06T00:03:11;21.10;75.00
39665;DHT22;26679;50.872;4.332;2024-01-06T00:05:36;21.10;75.00
39665;DHT22;26679;50.872;4.332;2024-01-06T00:08:01;21.00;75.00
39665;DHT22;26679;50.872;4.332;2024-01-06T00:10:27;21.00;75.00
39665;DHT22;26679;50.872;4.332;2024-01-06T00:12:52;21.00;75.10
39665;DHT22;26679;50.872;4.332;2024-01-06T00:15:18;21.00;75.20
39665;DHT22;26679;50.872;4.332;2024-01-06T00:17:43;20.90;75.10
39665;DHT22;26679;50.872;4.332;2024-01-06T00:20:09;20.90;75.20
39665;DHT22;26679;50.872;4.332;2024-01-06T00:22:34;20.90;75.30
39665;DHT22;26679;50.872;4.332;2024-01-06T00:25:00;20.90;75.20
39665;DHT22;26679;50.872;4.332;2024-01-06T00:27:26;20.80;75.20
39665;DHT22;26679;50.872;4.332;2024-01-06T00:29:51;20.80;75.30
39665;DHT22;26679;50.872;4.332;2024-01-06T00:32:17;20.80;75.30
39665;DHT22;26679;50.872;4.332;2024-01-06T00:34:42;20.80;75.30
39665;DHT22;26679;50.872;4.332;2024-01-06T00:37:08;20.80;75.40
39665;DHT22;26679;50.872;4.332;2024-01-06T00:39:33;20.80;75.40
39665;DHT22;26679;50.872;4.332;2024-01-06T00:41:58;20.80;75.50
39665;DHT22;26679;50.872;4.332;2024-01-06T00:44:24;20.70;75.40
39665;DHT22;26679;50.872;4.332;2024-01-06T00:46:49;20.70;75.50
39665;DHT22;26679;50.872;4.332;2024-01-06T00:49:15;20.70;75.60
39665;DHT22;26679;50.872;4.332;2024-01-06T00:51:40;20.70;75.60
39665;DHT22;26679;50.872;4.332;2024-01-06T00:54:06;20.70;75.60
39665;DHT22;26679;50.872;4.332;2024-01-06T00:56:31;20.70;75.60
39665;DHT22;26679;50.872;4.332;2024-01-06T00:58:56;20.60;75.60
39665;DHT22;26679;50.872;4.332;2024-01-06T01:01:22;20.60;75.70
39665;DHT22;26679;50.872;4.332;2024-01-06T01:03:47;20.60;75.70
39665;DHT22;26679;50.872;4.332;2024-01-06T01:06:13;20.60;75.70
39665;DHT22;26679;50.872;4.332;2024-01-06T01:08:38;20.60;75.80
39665;DHT22;26679;50.872;4.332;2024-01-06T01:11:04;20.60;75.80
39665;DHT22;26679;50.872;4.332;2024-01-06T01:13:30;20.60;75.80
39665;DHT22;26679;50.872;4.332;2024-01-06T01:15:55;20.60;75.80
39665;DHT22;26679;50.872;4.332;2024-01-06T01:18:21;20.60;75.80
39665;DHT22;26679;50.872;4.332;2024-01-06T01:20:46;20.50;75.80
39665;DHT22;26679;50.872;4.332;2024-01-06T01:23:11;20.50;75.80
39665;DHT22;26679;50.872;4.332;2024-01-06T01:25:37;20.50;75.80
39665;DHT22;26679;50.872;4.332;2024-01-06T01:28:03;20.50;75.90
39665;DHT22;26679;50.872;4.332;2024-01-06T01:30:29;20.50;75.90
39665;DHT22;26679;50.872;4.332;2024-01-06T01:32:54;20.50;75.90
39665;DHT22;26679;50.872;4.332;2024-01-06T01:35:20;20.50;75.90
39665;DHT22;26679;50.872;4.332;2024-01-06T01:37:45;20.40;75.90
39665;DHT22;26679;50.872;4.332;2024-01-06T01:40:11;20.50;76.00
39665;DHT22;26679;50.872;4.332;2024-01-06T01:42:36;20.40;76.00
39665;DHT22;26679;50.872;4.332;2024-01-06T01:45:03;20.40;76.00
39665;DHT22;26679;50.872;4.332;2024-01-06T01:47:28;20.40;76.00
39665;DHT22;26679;50.872;4.332;2024-01-06T01:49:54;20.40;76.10
39665;DHT22;26679;50.872;4.332;2024-01-06T01:52:20;20.40;76.10
39665;DHT22;26679;50.872;4.332;2024-01-06T01:54:46;20.40;76.10
39665;DHT22;26679;50.872;4.332;2024-01-06T01:57:12;20.40;76.10
39665;DHT22;26679;50.872;4.332;2024-01-06T01:59:38;20.40;76.10
39665;DHT22;26679;50.872;4.332;2024-01-06T02:02:04;20.30;76.10
39665;DHT22;26679;50.872;4.332;2024-01-06T02:04:29;20.30;76.10
39665;DHT22;26679;50.872;4.332;2024-01-06T02:06:55;20.30;76.20
39665;DHT22;26679;50.872;4.332;2024-01-06T02:09:20;20.30;76.20
39665;DHT22;26679;50.872;4.332;2024-01-06T02:11:48;20.30;76.20
39665;DHT22;26679;50.872;4.332;2024-01-06T02:14:13;20.30;76.20
39665;DHT22;26679;50.872;4.332;2024-01-06T02:16:39;20.30;76.20
39665;DHT22;26679;50.872;4.332;2024-01-06T02:19:05;20.20;76.20
39665;DHT22;26679;50.872;4.332;2024-01-06T02:21:31;20.20;76.20
39665;DHT22;26679;50.872;4.332;2024-01-06T02:23:56;20.20;76.20
39665;DHT22;26679;50.872;4.332;2024-01-06T02:26:22;20.30;76.30
39665;DHT22;26679;50.872;4.332;2024-01-06T02:28:47;20.20;76.30
39665;DHT22;26679;50.872;4.332;2024-01-06T02:31:13;20.20;76.20
39665;DHT22;26679;50.872;4.332;2024-01-06T02:33:38;20.20;76.30
39665;DHT22;26679;50.872;4.332;2024-01-06T02:36:04;20.20;76.30
39665;DHT22;26679;50.872;4.332;2024-01-06T02:38:29;20.20;76.30
39665;DHT22;26679;50.872;4.332;2024-01-06T02:40:55;20.20;76.40
39665;DHT22;26679;50.872;4.332;2024-01-06T02:43:20;20.20;76.40
39665;DHT22;26679;50.872;4.332;2024-01-06T02:45:47;20.20;76.40
39665;DHT22;26679;50.872;4.332;2024-01-06T02:48:13;20.20;76.50
39665;DHT22;26679;50.872;4.332;2024-01-06T02:50:38;20.30;76.50
39665;DHT22;26679;50.872;4.332;2024-01-06T02:53:03;20.30;76.40
39665;DHT22;26679;50.872;4.332;2024-01-06T02:55:29;20.40;76.30
39665;DHT22;26679;50.872;4.332;2024-01-06T02:57:54;20.50;76.30
39665;DHT22;26679;50.872;4.332;2024-01-06T03:00:20;20.60;76.20
39665;DHT22;26679;50.872;4.332;2024-01-06T03:02:45;20.60;76.10
39665;DHT22;26679;50.872;4.332;2024-01-06T03:05:11;20.70;76.00
39665;DHT22;26679;50.872;4.332;2024-01-06T03:07:37;20.80;75.90
39665;DHT22;26679;50.872;4.332;2024-01-06T03:10:02;20.90;75.80
39665;DHT22;26679;50.872;4.332;2024-01-06T03:12:28;21.00;75.70
39665;DHT22;26679;50.872;4.332;2024-01-06T03:14:53;21.00;75.50
39665;DHT22;26679;50.872;4.332;2024-01-06T03:17:19;21.10;75.50
39665;DHT22;26679;50.872;4.332;2024-01-06T03:19:44;21.10;75.40
39665;DHT22;26679;50.872;4.332;2024-01-06T03:22:10;21.20;75.40
39665;DHT22;26679;50.872;4.332;2024-01-06T03:24:35;21.20;75.30
39665;DHT22;26679;50.872;4.332;2024-01-06T03:27:01;21.30;75.30
39665;DHT22;26679;50.872;4.332;2024-01-06T03:29:26;21.40;75.20
39665;DHT22;26679;50.872;4.332;2024-01-06T03:31:51;21.40;75.20
39665;DHT22;26679;50.872;4.332;2024-01-06T03:34:17;21.40;75.00
39665;DHT22;26679;50.872;4.332;2024-01-06T03:36:42;21.50;75.00
39665;DHT22;26679;50.872;4.332;2024-01-06T03:39:08;21.50;74.90
39665;DHT22;26679;50.872;4.332;2024-01-06T03:41:33;21.50;74.90
39665;DHT22;26679;50.872;4.332;2024-01-06T03:43:59;21.60;75.00
39665;DHT22;26679;50.872;4.332;2024-01-06T03:46:24;21.60;74.80
39665;DHT22;26679;50.872;4.332;2024-01-06T03:48:50;21.60;74.80
39665;DHT22;26679;50.872;4.332;2024-01-06T03:51:15;21.70;74.80
39665;DHT22;26679;50.872;4.332;2024-01-06T03:53:41;21.70;74.70
39665;DHT22;26679;50.872;4.332;2024-01-06T03:56:07;21.70;74.60
39665;DHT22;26679;50.872;4.332;2024-01-06T03:58:32;21.80;74.70
39665;DHT22;26679;50.872;4.332;2024-01-06T04:00:58;21.80;74.70
39665;DHT22;26679;50.872;4.332;2024-01-06T04:03:23;21.80;74.70
39665;DHT22;26679;50.872;4.332;2024-01-06T04:05:49;21.80;74.60
39665;DHT22;26679;50.872;4.332;2024-01-06T04:08:14;21.80;74.60
39665;DHT22;26679;50.872;4.332;2024-01-06T04:10:39;21.80;74.60
39665;DHT22;26679;50.872;4.332;2024-01-06T04:13:07;21.90;74.60
39665;DHT22;26679;50.872;4.332;2024-01-06T04:15:32;21.90;74.60
39665;DHT22;26679;50.872;4.332;2024-01-06T04:18:01;21.90;74.60
39665;DHT22;26679;50.872;4.332;2024-01-06T04:20:26;21.90;74.50
39665;DHT22;26679;50.872;4.332;2024-01-06T04:22:52;21.90;74.50
39665;DHT22;26679;50.872;4.332;2024-01-06T04:25:17;22.00;74.60
39665;DHT22;26679;50.872;4.332;2024-01-06T04:27:42;22.00;74.60
39665;DHT22;26679;50.872;4.332;2024-01-06T04:30:09;22.00;75.10
39665;DHT22;26679;50.872;4.332;2024-01-06T04:32:34;22.00;74.50
39665;DHT22;26679;50.872;4.332;2024-01-06T04:35:00;22.00;74.50
39665;DHT22;26679;50.872;4.332;2024-01-06T04:37:25;22.00;74.50
39665;DHT22;26679;50.872;4.332;2024-01-06T04:39:50;22.00;74.50
39665;DHT22;26679;50.872;4.332;2024-01-06T04:42:16;22.10;74.60
39665;DHT22;26679;50.872;4.332;2024-01-06T04:44:41;22.00;74.50
39665;DHT22;26679;50.872;4.332;2024-01-06T04:47:07;22.00;74.50
39665;DHT22;26679;50.872;4.332;2024-01-06T04:49:32;22.00;74.50
39665;DHT22;26679;50.872;4.332;2024-01-06T04:51:58;22.00;74.50
39665;DHT22;26679;50.872;4.332;2024-01-06T04:54:23;22.00;74.50
39665;DHT22;26679;50.872;4.332;2024-01-06T04:56:49;22.00;74.50
39665;DHT22;26679;50.872;4.332;2024-01-06T04:59:14;22.10;74.60
39665;DHT22;26679;50.872;4.332;2024-01-06T05:01:39;22.10;74.60
39665;DHT22;26679;50.872;4.332;2024-01-06T05:04:05;22.10;74.60
39665;DHT22;26679;50.872;4.332;2024-01-06T05:06:30;22.10;74.60
39665;DHT22;26679;50.872;4.332;2024-01-06T05:08:56;22.10;75.10
39665;DHT22;26679;50.872;4.332;2024-01-06T05:11:22;22.20;74.50
39665;DHT22;26679;50.872;4.332;2024-01-06T05:13:47;22.20;74.60
39665;DHT22;26679;50.872;4.332;2024-01-06T05:16:13;22.20;74.60
39665;DHT22;26679;50.872;4.332;2024-01-06T05:18:38;22.10;74.50
39665;DHT22;26679;50.872;4.332;2024-01-06T05:21:04;22.20;74.60
39665;DHT22;26679;50.872;4.332;2024-01-06T05:23:29;22.20;74.60
39665;DHT22;26679;50.872;4.332;2024-01-06T05:25:55;22.20;74.60
39665;DHT22;26679;50.872;4.332;2024-01-06T05:28:20;22.20;74.60
39665;DHT22;26679;50.872;4.332;2024-01-06T05:30:46;22.20;74.60
39665;DHT22;26679;50.872;4.332;2024-01-06T05:33:12;22.20;74.60
39665;DHT22;26679;50.872;4.332;2024-01-06T05:35:38;22.20;74.60
39665;DHT22;26679;50.872;4.332;2024-01-06T05:38:04;22.20;74.60
39665;DHT22;26679;50.872;4.332;2024-01-06T05:40:29;22.20;74.60
39665;DHT22;26679;50.872;4.332;2024-01-06T05:42:54;22.20;74.60
39665;DHT22;26679;50.872;4.332;2024-01-06T05:45:22;22.20;74.60
39665;DHT22;26679;50.872;4.332;2024-01-06T05:47:47;22.20;74.60
39665;DHT22;26679;50.872;4.332;2024-01-06T05:50:14;22.30;74.70
39665;DHT22;26679;50.872;4.332;2024-01-06T05:52:40;22.20;74.60
39665;DHT22;26679;50.872;4.332;2024-01-06T05:55:06;22.30;74.60
39665;DHT22;26679;50.872;4.332;2024-01-06T05:57:32;22.30;74.60
39665;DHT22;26679;50.872;4.332;2024-01-06T05:59:57;22.30;74.60
39665;DHT22;26679;50.872;4.332;2024-01-06T06:02:22;22.30;74.60
39665;DHT22;26679;50.872;4.332;2024-01-06T06:04:48;22.30;74.60
39665;DHT22;26679;50.872;4.332;2024-01-06T06:07:13;22.30;74.60
39665;DHT22;26679;50.872;4.332;2024-01-06T06:09:39;22.30;74.60
39665;DHT22;26679;50.872;4.332;2024-01-06T06:12:05;22.30;74.60
39665;DHT22;26679;50.872;4.332;2024-01-06T06:14:31;22.30;74.60
39665;DHT22;26679;50.872;4.332;2024-01-06T06:16:56;22.30;74.60
39665;DHT22;26679;50.872;4.332;2024-01-06T06:19:22;22.40;74.70
39665;DHT22;26679;50.872;4.332;2024-01-06T06:21:47;22.30;74.70
39665;DHT22;26679;50.872;4.332;2024-01-06T06:24:13;22.30;74.60
39665;DHT22;26679;50.872;4.332;2024-01-06T06:26:38;22.30;74.60
39665;DHT22;26679;50.872;4.332;2024-01-06T06:29:04;22.30;74.60
39665;DHT22;26679;50.872;4.332;2024-01-06T06:31:29;22.40;74.60
39665;DHT22;26679;50.872;4.332;2024-01-06T06:33:55;22.40;74.70
39665;DHT22;26679;50.872;4.332;2024-01-06T06:36:20;22.40;74.60
39665;DHT22;26679;50.872;4.332;2024-01-06T06:38:46;22.40;74.60
39665;DHT22;26679;50.872;4.332;2024-01-06T06:41:11;22.40;74.60
39665;DHT22;26679;50.872;4.332;2024-01-06T06:43:37;22.40;74.60
39665;DHT22;26679;50.872;4.332;2024-01-06T06:46:02;22.40;74.60
39665;DHT22;26679;50.872;4.332;2024-01-06T06:48:28;22.40;74.60
39665;DHT22;26679;50.872;4.332;2024-01-06T06:50:53;22.40;74.60
39665;DHT22;26679;50.872;4.332;2024-01-06T06:53:19;22.40;74.50
39665;DHT22;26679;50.872;4.332;2024-01-06T06:55:44;22.50;74.60
39665;DHT22;26679;50.872;4.332;2024-01-06T06:58:10;22.40;74.60
39665;DHT22;26679;50.872;4.332;2024-01-06T07:00:35;22.40;74.50
39665;DHT22;26679;50.872;4.332;2024-01-06T07:03:01;22.40;74.50
39665;DHT22;26679;50.872;4.332;2024-01-06T07:05:26;22.50;74.60
39665;DHT22;26679;50.872;4.332;2024-01-06T07:07:51;22.40;74.50
39665;DHT22;26679;50.872;4.332;2024-01-06T07:10:17;22.40;74.50
39665;DHT22;26679;50.872;4.332;2024-01-06T07:12:43;22.40;74.50
39665;DHT22;26679;50.872;4.332;2024-01-06T07:15:08;22.40;74.50
39665;DHT22;26679;50.872;4.332;2024-01-06T07:17:37;22.50;74.50
39665;DHT22;26679;50.872;4.332;2024-01-06T07:20:04;22.50;74.50
39665;DHT22;26679;50.872;4.332;2024-01-06T07:22:30;22.50;74.50
39665;DHT22;26679;50.872;4.332;2024-01-06T07:24:55;22.50;74.50
39665;DHT22;26679;50.872;4.332;2024-01-06T07:27:20;22.50;74.50
39665;DHT22;26679;50.872;4.332;2024-01-06T07:29:46;22.50;74.50
39665;DHT22;26679;50.872;4.332;2024-01-06T07:32:11;22.50;74.40
39665;DHT22;26679;50.872;4.332;2024-01-06T07:34:37;22.50;74.50
39665;DHT22;26679;50.872;4.332;2024-01-06T07:37:02;22.50;74.40
39665;DHT22;26679;50.872;4.332;2024-01-06T07:39:28;22.50;74.40
39665;DHT22;26679;50.872;4.332;2024-01-06T07:41:53;22.50;74.50
39665;DHT22;26679;50.872;4.332;2024-01-06T07:44:19;22.50;74.40
39665;DHT22;26679;50.872;4.332;2024-01-06T07:46:50;22.50;74.40
39665;DHT22;26679;50.872;4.332;2024-01-06T07:49:15;22.50;74.30
39665;DHT22;26679;50.872;4.332;2024-01-06T07:51:41;22.50;74.30
39665;DHT22;26679;50.872;4.332;2024-01-06T07:54:06;22.50;74.30
39665;DHT22;26679;50.872;4.332;2024-01-06T07:56:34;22.60;74.40
39665;DHT22;26679;50.872;4.332;2024-01-06T07:59:00;22.60;74.40
39665;DHT22;26679;50.872;4.332;2024-01-06T08:01:26;22.60;74.30
39665;DHT22;26679;50.872;4.332;2024-01-06T08:03:51;22.60;74.30
39665;DHT22;26679;50.872;4.332;2024-01-06T08:06:17;22.60;74.30
39665;DHT22;26679;50.872;4.332;2024-01-06T08:08:42;22.60;74.30
39665;DHT22;26679;50.872;4.332;2024-01-06T08:11:08;22.60;74.30
39665;DHT22;26679;50.872;4.332;2024-01-06T08:13:33;22.60;74.30
39665;DHT22;26679;50.872;4.332;2024-01-06T08:15:59;22.60;74.20
39665;DHT22;26679;50.872;4.332;2024-01-06T08:18:25;22.60;74.20
39665;DHT22;26679;50.872;4.332;2024-01-06T08:20:50;22.60;74.20
39665;DHT22;26679;50.872;4.332;2024-01-06T08:23:16;22.70;74.20
39665;DHT22;26679;50.872;4.332;2024-01-06T08:25:44;22.70;74.20
39665;DHT22;26679;50.872;4.332;2024-01-06T08:28:11;22.60;74.20
39665;DHT22;26679;50.872;4.332;2024-01-06T08:30:36;22.70;74.20
39665;DHT22;26679;50.872;4.332;2024-01-06T08:33:02;22.70;74.20
39665;DHT22;26679;50.872;4.332;2024-01-06T08:35:27;22.70;74.20
39665;DHT22;26679;50.872;4.332;2024-01-06T08:37:53;22.70;74.20
39665;DHT22;26679;50.872;4.332;2024-01-06T08:40:18;22.70;74.10
39665;DHT22;26679;50.872;4.332;2024-01-06T08:42:43;22.70;74.10
39665;DHT22;26679;50.872;4.332;2024-01-06T08:45:09;22.70;74.10
39665;DHT22;26679;50.872;4.332;2024-01-06T08:47:34;22.70;74.10
39665;DHT22;26679;50.872;4.332;2024-01-06T08:50:00;22.70;74.10
39665;DHT22;26679;50.872;4.332;2024-01-06T08:52:25;22.70;74.10
39665;DHT22;26679;50.872;4.332;2024-01-06T08:54:51;22.70;74.10
39665;DHT22;26679;50.872;4.332;2024-01-06T08:57:16;22.70;74.00
39665;DHT22;26679;50.872;4.332;2024-01-06T08:59:43;22.70;74.10
39665;DHT22;26679;50.872;4.332;2024-01-06T09:02:10;22.70;74.10
39665;DHT22;26679;50.872;4.332;2024-01-06T09:04:36;22.70;74.10
39665;DHT22;26679;50.872;4.332;2024-01-06T09:07:01;22.70;74.00
39665;DHT22;26679;50.872;4.332;2024-01-06T09:11:56;22.70;74.00
39665;DHT22;26679;50.872;4.332;2024-01-06T09:14:21;22.70;74.00
39665;DHT22;26679;50.872;4.332;2024-01-06T09:16:47;22.80;74.00
39665;DHT22;26679;50.872;4.332;2024-01-06T09:19:12;22.80;74.00
39665;DHT22;26679;50.872;4.332;2024-01-06T09:21:38;22.80;74.00
39665;DHT22;26679;50.872;4.332;2024-01-06T09:24:03;22.80;73.90
39665;DHT22;26679;50.872;4.332;2024-01-06T09:26:32;22.80;73.90
39665;DHT22;26679;50.872;4.332;2024-01-06T09:28:57;22.80;73.90
39665;DHT22;26679;50.872;4.332;2024-01-06T09:31:22;22.80;73.90
39665;DHT22;26679;50.872;4.332;2024-01-06T09:33:49;22.80;73.90
39665;DHT22;26679;50.872;4.332;2024-01-06T09:36:15;22.80;73.90
39665;DHT22;26679;50.872;4.332;2024-01-06T09:38:40;22.80;73.90
39665;DHT22;26679;50.872;4.332;2024-01-06T09:41:06;22.80;74.00
39665;DHT22;26679;50.872;4.332;2024-01-06T09:43:31;22.80;74.00
39665;DHT22;26679;50.872;4.332;2024-01-06T09:46:02;22.80;74.00
39665;DHT22;26679;50.872;4.332;2024-01-06T09:48:30;22.80;74.00
39665;DHT22;26679;50.872;4.332;2024-01-06T09:50:56;22.80;74.00
39665;DHT22;26679;50.872;4.332;2024-01-06T09:53:27;22.80;74.00
39665;DHT22;26679;50.872;4.332;2024-01-06T09:55:54;22.80;74.10
39665;DHT22;26679;50.872;4.332;2024-01-06T09:58:20;22.90;74.20
39665;DHT22;26679;50.872;4.332;2024-01-06T10:00:48;22.90;74.20
39665;DHT22;26679;50.872;4.332;2024-01-06T10:03:14;22.80;74.10
39665;DHT22;26679;50.872;4.332;2024-01-06T10:05:40;22.80;74.20
39665;DHT22;26679;50.872;4.332;2024-01-06T10:08:05;22.80;74.20
39665;DHT22;26679;50.872;4.332;2024-01-06T10:10:32;22.80;74.20
39665;DHT22;26679;50.872;4.332;2024-01-06T10:12:58;22.80;74.30
39665;DHT22;26679;50.872;4.332;2024-01-06T10:15:23;22.80;74.20
39665;DHT22;26679;50.872;4.332;2024-01-06T10:17:49;22.80;74.30
39665;DHT22;26679;50.872;4.332;2024-01-06T10:20:15;22.80;74.30
39665;DHT22;26679;50.872;4.332;2024-01-06T10:22:42;22.80;74.30
39665;DHT22;26679;50.872;4.332;2024-01-06T10:25:08;22.80;74.30
39665;DHT22;26679;50.872;4.332;2024-01-06T10:27:35;22.80;74.30
39665;DHT22;26679;50.872;4.332;2024-01-06T10:30:01;22.80;74.20
39665;DHT22;26679;50.872;4.332;2024-01-06T10:32:27;22.80;74.20
39665;DHT22;26679;50.872;4.332;2024-01-06T10:34:54;22.80;74.30
39665;DHT22;26679;50.872;4.332;2024-01-06T10:37:20;22.80;74.30
39665;DHT22;26679;50.872;4.332;2024-01-06T10:39:45;22.80;74.30
39665;DHT22;26679;50.872;4.332;2024-01-06T10:42:11;22.80;74.20
39665;DHT22;26679;50.872;4.332;2024-01-06T10:44:37;22.80;74.20
39665;DHT22;26679;50.872;4.332;2024-01-06T10:47:05;22.80;74.20
39665;DHT22;26679;50.872;4.332;2024-01-06T10:49:31;22.80;74.20
39665;DHT22;26679;50.872;4.332;2024-01-06T10:51:57;22.80;74.20
39665;DHT22;26679;50.872;4.332;2024-01-06T10:54:23;22.80;74.20
39665;DHT22;26679;50.872;4.332;2024-01-06T10:56:49;22.90;74.30
39665;DHT22;26679;50.872;4.332;2024-01-06T10:59:16;22.80;74.10
39665;DHT22;26679;50.872;4.332;2024-01-06T11:01:44;22.80;74.10
39665;DHT22;26679;50.872;4.332;2024-01-06T11:04:10;22.80;74.20
39665;DHT22;26679;50.872;4.332;2024-01-06T11:06:36;22.90;74.20
39665;DHT22;26679;50.872;4.332;2024-01-06T11:11:30;22.80;74.10
39665;DHT22;26679;50.872;4.332;2024-01-06T11:16:40;22.80;74.10
39665;DHT22;26679;50.872;4.332;2024-01-06T11:19:41;22.80;74.10
39665;DHT22;26679;50.872;4.332;2024-01-06T11:21:51;22.80;74.10
39665;DHT22;26679;50.872;4.332;2024-01-06T11:24:19;22.80;74.10
39665;DHT22;26679;50.872;4.332;2024-01-06T11:26:51;22.80;74.00
39665;DHT22;26679;50.872;4.332;2024-01-06T11:29:17;22.80;74.00
39665;DHT22;26679;50.872;4.332;2024-01-06T11:31:42;22.80;74.00
39665;DHT22;26679;50.872;4.332;2024-01-06T11:34:15;22.80;74.00
39665;DHT22;26679;50.872;4.332;2024-01-06T11:36:44;22.80;73.90
39665;DHT22;26679;50.872;4.332;2024-01-06T11:41:54;22.80;73.90
39665;DHT22;26679;50.872;4.332;2024-01-06T11:44:21;22.80;73.80
39665;DHT22;26679;50.872;4.332;2024-01-06T11:46:47;22.90;73.90
39665;DHT22;26679;50.872;4.332;2024-01-06T11:49:14;22.80;73.90
39665;DHT22;26679;50.872;4.332;2024-01-06T11:51:40;22.90;73.90
39665;DHT22;26679;50.872;4.332;2024-01-06T11:54:05;22.80;73.80
39665;DHT22;26679;50.872;4.332;2024-01-06T11:56:31;22.90;73.90
39665;DHT22;26679;50.872;4.332;2024-01-06T11:58:56;22.90;74.10
39665;DHT22;26679;50.872;4.332;2024-01-06T12:01:22;22.80;73.70
39665;DHT22;26679;50.872;4.332;2024-01-06T12:03:53;22.80;73.80
39665;DHT22;26679;50.872;4.332;2024-01-06T12:06:20;22.80;73.70
39665;DHT22;26679;50.872;4.332;2024-01-06T12:08:46;22.90;73.80
39665;DHT22;26679;50.872;4.332;2024-01-06T12:11:12;22.90;73.70
39665;DHT22;26679;50.872;4.332;2024-01-06T12:13:37;22.90;73.70
39665;DHT22;26679;50.872;4.332;2024-01-06T12:16:03;22.90;73.70
39665;DHT22;26679;50.872;4.332;2024-01-06T12:18:28;22.80;73.60
39665;DHT22;26679;50.872;4.332;2024-01-06T12:20:54;22.80;73.60
39665;DHT22;26679;50.872;4.332;2024-01-06T12:23:28;22.80;73.60
39665;DHT22;26679;50.872;4.332;2024-01-06T12:25:54;22.80;73.60
39665;DHT22;26679;50.872;4.332;2024-01-06T12:28:20;22.90;73.60
39665;DHT22;26679;50.872;4.332;2024-01-06T12:30:45;22.80;73.50
39665;DHT22;26679;50.872;4.332;2024-01-06T12:33:11;22.90;73.60
39665;DHT22;26679;50.872;4.332;2024-01-06T12:35:37;22.90;73.50
39665;DHT22;26679;50.872;4.332;2024-01-06T12:38:03;22.90;73.50
39665;DHT22;26679;50.872;4.332;2024-01-06T12:40:31;22.90;73.50
39665;DHT22;26679;50.872;4.332;2024-01-06T12:42:57;22.90;73.50
39665;DHT22;26679;50.872;4.332;2024-01-06T12:45:22;22.90;73.50
39665;DHT22;26679;50.872;4.332;2024-01-06T12:47:47;22.90;73.40
39665;DHT22;26679;50.872;4.332;2024-01-06T12:50:13;22.90;73.40
39665;DHT22;26679;50.872;4.332;2024-01-06T12:52:39;22.90;73.40
39665;DHT22;26679;50.872;4.332;2024-01-06T12:55:06;22.90;73.40
39665;DHT22;26679;50.872;4.332;2024-01-06T12:57:31;22.90;73.30
39665;DHT22;26679;50.872;4.332;2024-01-06T12:59:57;22.90;73.30
39665;DHT22;26679;50.872;4.332;2024-01-06T13:02:22;22.90;73.30
39665;DHT22;26679;50.872;4.332;2024-01-06T13:04:48;22.90;73.30
39665;DHT22;26679;50.872;4.332;2024-01-06T13:07:13;22.90;73.20
39665;DHT22;26679;50.872;4.332;2024-01-06T13:09:39;22.90;73.20
39665;DHT22;26679;50.872;4.332;2024-01-06T13:12:04;22.90;73.20
39665;DHT22;26679;50.872;4.332;2024-01-06T13:14:30;22.90;73.20
39665;DHT22;26679;50.872;4.332;2024-01-06T13:16:56;22.90;73.20
39665;DHT22;26679;50.872;4.332;2024-01-06T13:19:22;23.00;73.20
39665;DHT22;26679;50.872;4.332;2024-01-06T13:21:48;22.90;73.10
39665;DHT22;26679;50.872;4.332;2024-01-06T13:24:13;22.90;73.10
39665;DHT22;26679;50.872;4.332;2024-01-06T13:26:39;22.90;73.10
39665;DHT22;26679;50.872;4.332;2024-01-06T13:29:04;22.90;73.10
39665;DHT22;26679;50.872;4.332;2024-01-06T13:31:30;22.90;73.00
39665;DHT22;26679;50.872;4.332;2024-01-06T13:33:56;23.00;73.00
39665;DHT22;26679;50.872;4.332;2024-01-06T13:36:22;23.00;73.00
39665;DHT22;26679;50.872;4.332;2024-01-06T13:38:47;23.00;73.00
39665;DHT22;26679;50.872;4.332;2024-01-06T13:41:14;22.90;73.00
39665;DHT22;26679;50.872;4.332;2024-01-06T13:43:39;23.00;73.00
39665;DHT22;26679;50.872;4.332;2024-01-06T13:46:04;22.90;73.50
39665;DHT22;26679;50.872;4.332;2024-01-06T13:48:30;22.90;72.90
39665;DHT22;26679;50.872;4.332;2024-01-06T13:50:55;22.90;72.90
39665;DHT22;26679;50.872;4.332;2024-01-06T13:53:22;22.90;72.90
39665;DHT22;26679;50.872;4.332;2024-01-06T13:55:47;22.90;72.90
39665;DHT22;26679;50.872;4.332;2024-01-06T13:58:13;23.00;73.00
39665;DHT22;26679;50.872;4.332;2024-01-06T14:00:38;22.90;72.90
39665;DHT22;26679;50.872;4.332;2024-01-06T14:03:05;22.90;72.90
39665;DHT22;26679;50.872;4.332;2024-01-06T14:05:32;22.90;72.90
39665;DHT22;26679;50.872;4.332;2024-01-06T14:07:58;22.90;72.90
39665;DHT22;26679;50.872;4.332;2024-01-06T14:10:23;22.90;72.90
39665;DHT22;26679;50.872;4.332;2024-01-06T14:12:49;22.80;72.80
39665;DHT22;26679;50.872;4.332;2024-01-06T14:15:14;22.90;72.80
39665;DHT22;26679;50.872;4.332;2024-01-06T14:17:40;22.90;72.80
39665;DHT22;26679;50.872;4.332;2024-01-06T14:20:06;22.90;72.70
39665;DHT22;26679;50.872;4.332;2024-01-06T14:22:31;22.90;72.70
39665;DHT22;26679;50.872;4.332;2024-01-06T14:24:57;22.90;72.70
39665;DHT22;26679;50.872;4.332;2024-01-06T14:27:22;22.90;72.70
39665;DHT22;26679;50.872;4.332;2024-01-06T14:29:48;22.90;72.70
39665;DHT22;26679;50.872;4.332;2024-01-06T14:32:13;22.90;72.70
39665;DHT22;26679;50.872;4.332;2024-01-06T14:34:39;22.80;72.60
39665;DHT22;26679;50.872;4.332;2024-01-06T14:37:05;22.80;72.60
39665;DHT22;26679;50.872;4.332;2024-01-06T14:39:30;22.80;72.60
39665;DHT22;26679;50.872;4.332;2024-01-06T14:41:55;22.90;72.60
39665;DHT22;26679;50.872;4.332;2024-01-06T14:44:21;22.90;72.60
39665;DHT22;26679;50.872;4.332;2024-01-06T14:46:47;22.90;72.60
39665;DHT22;26679;50.872;4.332;2024-01-06T14:49:12;22.90;72.50
39665;DHT22;26679;50.872;4.332;2024-01-06T14:51:38;22.90;72.50
39665;DHT22;26679;50.872;4.332;2024-01-06T14:54:03;22.90;72.50
39665;DHT22;26679;50.872;4.332;2024-01-06T14:56:29;22.90;72.50
39665;DHT22;26679;50.872;4.332;2024-01-06T14:58:55;22.90;72.40
39665;DHT22;26679;50.872;4.332;2024-01-06T15:01:21;22.90;72.40
39665;DHT22;26679;50.872;4.332;2024-01-06T15:03:46;22.90;72.40
39665;DHT22;26679;50.872;4.332;2024-01-06T15:06:12;22.90;72.40
39665;DHT22;26679;50.872;4.332;2024-01-06T15:08:37;22.90;72.40
39665;DHT22;26679;50.872;4.332;2024-01-06T15:11:03;22.90;72.30
39665;DHT22;26679;50.872;4.332;2024-01-06T15:13:28;22.90;72.30
39665;DHT22;26679;50.872;4.332;2024-01-06T15:15:54;22.90;72.30
39665;DHT22;26679;50.872;4.332;2024-01-06T15:18:20;22.90;72.30
39665;DHT22;26679;50.872;4.332;2024-01-06T15:20:48;22.90;72.30
39665;DHT22;26679;50.872;4.332;2024-01-06T15:23:14;22.90;72.30
39665;DHT22;26679;50.872;4.332;2024-01-06T15:25:39;22.80;72.20
39665;DHT22;26679;50.872;4.332;2024-01-06T15:28:07;22.90;72.20
39665;DHT22;26679;50.872;4.332;2024-01-06T15:30:33;22.90;72.10